createdAt,value
2023-04-19T00:01:31.922Z,11.20
2023-04-19T00:03:59.031Z,11.20
2023-04-19T00:06:26.281Z,11.20
2023-04-19T00:08:53.149Z,11.20
2023-04-19T00:11:20.274Z,11.20
2023-04-19T00:13:47.431Z,11.20
2023-04-19T00:16:14.340Z,11.10
2023-04-19T00:18:41.899Z,11.10
2023-04-19T00:21:09.131Z,11.10
2023-04-19T00:23:36.054Z,11.10
2023-04-19T00:26:04.232Z,11.10
2023-04-19T00:28:31.285Z,11.10
2023-04-19T00:30:58.442Z,11.10
2023-04-19T00:33:25.515Z,11.10
2023-04-19T00:35:52.478Z,11.10
2023-04-19T00:38:19.427Z,11.10
2023-04-19T00:40:46.982Z,11.10
2023-04-19T00:43:20.671Z,11.10
2023-04-19T00:45:48.959Z,11.00
2023-04-19T00:48:16.062Z,11.00
2023-04-19T00:50:44.811Z,11.00
2023-04-19T00:53:12.151Z,11.00
2023-04-19T00:55:39.949Z,11.00
2023-04-19T00:58:09.304Z,11.00
2023-04-19T01:00:37.593Z,11.00
2023-04-19T01:03:05.169Z,11.00
2023-04-19T01:05:32.170Z,10.90
2023-04-19T01:07:59.096Z,10.90
2023-04-19T01:10:25.996Z,10.90
2023-04-19T01:12:52.997Z,10.90
2023-04-19T01:15:19.988Z,10.90
2023-04-19T01:17:47.076Z,10.90
2023-04-19T01:20:14.358Z,10.80
2023-04-19T01:22:41.243Z,10.80
2023-04-19T01:25:09.088Z,10.80
2023-04-19T01:27:36.102Z,10.80
2023-04-19T01:30:03.387Z,10.80
2023-04-19T01:32:30.772Z,10.70
2023-04-19T01:34:59.905Z,10.70
2023-04-19T01:37:26.848Z,10.70
2023-04-19T01:39:54.032Z,10.70
2023-04-19T01:42:23.243Z,10.70
2023-04-19T01:44:50.234Z,10.70
2023-04-19T01:47:17.103Z,10.70
2023-04-19T01:49:44.026Z,10.60
2023-04-19T01:52:10.883Z,10.60
2023-04-19T01:54:37.744Z,10.60
2023-04-19T01:57:04.673Z,10.60
2023-04-19T01:59:31.490Z,10.50
2023-04-19T02:01:58.748Z,10.50
2023-04-19T02:04:25.747Z,10.50
2023-04-19T02:06:52.705Z,10.50
2023-04-19T02:09:19.669Z,10.50
2023-04-19T02:11:46.575Z,10.50
2023-04-19T02:14:13.701Z,10.40
2023-04-19T02:16:41.376Z,10.40
2023-04-19T02:19:09.316Z,10.40
2023-04-19T02:21:36.188Z,10.30
2023-04-19T02:24:03.148Z,10.30
2023-04-19T02:26:30.035Z,10.30
2023-04-19T02:28:56.995Z,10.30
2023-04-19T02:31:24.085Z,10.20
2023-04-19T02:33:51.012Z,10.20
2023-04-19T02:36:17.869Z,10.20
2023-04-19T02:38:44.761Z,10.10
2023-04-19T02:41:11.675Z,10.10
2023-04-19T02:43:38.650Z,10.10
2023-04-19T02:46:06.042Z,10.10
2023-04-19T02:48:33.019Z,10.00
2023-04-19T02:51:00.214Z,10.00
2023-04-19T02:53:27.157Z,10.00
2023-04-19T02:55:54.059Z,9.90
2023-04-19T02:58:21.063Z,9.80
2023-04-19T03:00:47.920Z,9.70
2023-04-19T03:03:14.896Z,9.60
2023-04-19T03:05:41.900Z,9.60
2023-04-19T03:08:10.899Z,9.60
2023-04-19T03:10:37.796Z,9.60
2023-04-19T03:13:04.801Z,9.50
2023-04-19T03:15:31.684Z,9.50
2023-04-19T03:17:58.677Z,9.50
2023-04-19T03:20:26.305Z,9.50
2023-04-19T03:22:53.266Z,9.50
2023-04-19T03:25:20.613Z,9.40
2023-04-19T03:27:48.199Z,9.40
2023-04-19T03:30:15.513Z,9.40
2023-04-19T03:32:42.773Z,9.40
2023-04-19T03:35:10.152Z,9.40
2023-04-19T03:37:37.017Z,9.30
2023-04-19T03:40:04.338Z,9.30
2023-04-19T03:42:31.199Z,9.30
2023-04-19T03:44:58.239Z,9.30
2023-04-19T03:47:25.203Z,9.30
2023-04-19T03:49:52.121Z,9.30
2023-04-19T03:52:19.098Z,9.20
2023-04-19T03:54:47.305Z,9.20
2023-04-19T03:57:15.542Z,9.20
2023-04-19T03:59:42.398Z,9.20
2023-04-19T04:02:09.461Z,9.10
2023-04-19T04:04:36.796Z,9.10
2023-04-19T04:07:03.942Z,9.10
2023-04-19T04:09:31.392Z,9.10
2023-04-19T04:11:58.327Z,9.00
2023-04-19T04:14:25.316Z,9.00
2023-04-19T04:16:52.299Z,9.00
2023-04-19T04:19:21.916Z,8.90
2023-04-19T04:21:49.391Z,8.90
2023-04-19T04:24:17.997Z,8.80
2023-04-19T04:26:45.039Z,8.80
2023-04-19T04:29:11.985Z,8.70
2023-04-19T04:31:41.362Z,8.70
2023-04-19T04:34:10.088Z,8.70
2023-04-19T04:36:37.727Z,8.70
2023-04-19T04:39:06.443Z,8.70
2023-04-19T04:41:33.594Z,8.60
2023-04-19T04:46:31.177Z,8.50
2023-04-19T04:48:58.039Z,8.50
2023-04-19T04:51:25.142Z,8.40
2023-04-19T04:53:52.098Z,8.40
2023-04-19T04:56:19.875Z,8.40
2023-04-19T04:58:46.808Z,8.40
2023-04-19T05:01:13.757Z,8.40
2023-04-19T05:03:40.815Z,8.30
2023-04-19T05:06:07.969Z,8.30
2023-04-19T05:08:34.838Z,8.30
2023-04-19T05:11:01.717Z,8.20
2023-04-19T05:13:28.758Z,8.20
2023-04-19T05:15:55.729Z,8.20
2023-04-19T05:18:22.785Z,8.20
2023-04-19T05:20:49.721Z,8.20
2023-04-19T05:23:17.012Z,8.20
2023-04-19T05:25:43.944Z,8.20
2023-04-19T05:28:10.949Z,8.20
2023-04-19T05:30:38.398Z,8.20
2023-04-19T05:33:05.624Z,8.20
2023-04-19T05:35:32.570Z,8.20
2023-04-19T05:37:59.431Z,8.20
2023-04-19T05:40:26.436Z,8.20
2023-04-19T05:42:53.461Z,8.20
2023-04-19T05:45:22.338Z,8.20
2023-04-19T05:47:49.237Z,8.20
2023-04-19T05:50:18.103Z,8.10
2023-04-19T05:52:45.030Z,8.10
2023-04-19T05:55:11.915Z,8.10
2023-04-19T05:57:38.909Z,8.10
2023-04-19T06:00:09.013Z,8.00
2023-04-19T06:02:37.024Z,8.00
2023-04-19T06:05:09.761Z,8.00
2023-04-19T06:07:40.722Z,8.10
2023-04-19T06:10:10.987Z,8.10
2023-04-19T06:12:37.923Z,8.20
2023-04-19T06:15:05.868Z,8.40
2023-04-19T06:17:32.845Z,8.70
2023-04-19T06:19:59.802Z,9.00
2023-04-19T06:22:26.826Z,9.00
2023-04-19T06:24:53.750Z,8.90
2023-04-19T06:27:20.774Z,8.80
2023-04-19T06:29:48.779Z,8.70
2023-04-19T06:32:20.177Z,8.90
2023-04-19T06:34:47.548Z,9.10
2023-04-19T06:37:15.266Z,9.20
2023-04-19T06:39:42.156Z,9.50
2023-04-19T06:42:09.149Z,9.70
2023-04-19T06:44:36.061Z,9.90
2023-04-19T06:47:03.487Z,9.80
2023-04-19T06:49:30.390Z,10.00
2023-04-19T06:51:58.531Z,9.80
2023-04-19T06:54:25.414Z,9.70
2023-04-19T06:56:52.396Z,10.10
2023-04-19T06:59:21.076Z,10.40
2023-04-19T07:01:48.319Z,10.40
2023-04-19T07:04:16.490Z,10.30
2023-04-19T07:06:43.662Z,10.20
2023-04-19T07:09:10.848Z,10.10
2023-04-19T07:11:37.897Z,10.10
2023-04-19T07:14:04.811Z,10.00
2023-04-19T07:16:31.849Z,10.00
2023-04-19T07:18:59.112Z,10.00
2023-04-19T07:21:28.788Z,10.00
2023-04-19T07:23:55.657Z,10.00
2023-04-19T07:26:22.604Z,9.90
2023-04-19T07:28:50.424Z,10.00
2023-04-19T07:31:26.883Z,10.00
2023-04-19T07:33:54.127Z,10.20
2023-04-19T07:36:21.690Z,10.50
2023-04-19T07:38:48.715Z,10.60
2023-04-19T07:41:15.733Z,10.60
2023-04-19T07:43:42.646Z,10.90
2023-04-19T07:46:11.371Z,10.80
2023-04-19T07:48:38.599Z,10.90
2023-04-19T07:51:12.837Z,10.80
2023-04-19T07:53:41.639Z,10.60
2023-04-19T07:56:12.136Z,10.70
2023-04-19T07:58:39.797Z,10.60
2023-04-19T08:01:07.232Z,10.80
2023-04-19T08:03:35.042Z,10.70
2023-04-19T08:06:03.179Z,10.90
2023-04-19T08:08:30.134Z,11.00
2023-04-19T08:10:57.206Z,11.00
2023-04-19T08:13:25.103Z,10.90
2023-04-19T08:16:27.199Z,10.90
2023-04-19T08:18:39.045Z,10.60
2023-04-19T08:21:05.963Z,10.50
2023-04-19T08:23:44.971Z,10.90
2023-04-19T08:26:14.526Z,11.20
2023-04-19T08:28:41.612Z,11.40
2023-04-19T08:31:13.283Z,12.00
2023-04-19T08:33:43.054Z,12.60
2023-04-19T08:36:11.051Z,12.40
2023-04-19T08:38:39.098Z,12.50
2023-04-19T08:41:06.069Z,12.10
2023-04-19T08:43:38.388Z,12.20
2023-04-19T08:46:07.944Z,12.40
2023-04-19T08:48:36.875Z,12.50
2023-04-19T08:51:05.781Z,12.50
2023-04-19T08:53:36.930Z,12.40
2023-04-19T08:56:17.586Z,12.70
2023-04-19T08:59:04.042Z,13.00
2023-04-19T09:01:38.121Z,12.50
2023-04-19T09:04:17.424Z,12.80
2023-04-19T09:06:53.919Z,13.20
2023-04-19T09:09:37.225Z,12.60
2023-04-19T09:12:20.062Z,12.30
2023-04-19T09:15:00.701Z,12.30
2023-04-19T09:17:31.266Z,12.50
2023-04-19T09:19:59.041Z,13.00
2023-04-19T09:22:26.414Z,12.80
2023-04-19T09:27:36.604Z,12.20
2023-04-19T09:30:05.383Z,12.40
2023-04-19T09:32:48.240Z,12.30
2023-04-19T09:35:18.927Z,12.30
2023-04-19T09:38:07.118Z,12.30
2023-04-19T09:40:34.712Z,12.50
2023-04-19T09:43:22.935Z,12.80
2023-04-19T09:45:50.275Z,12.70
2023-04-19T09:48:17.223Z,12.70
2023-04-19T09:51:03.276Z,12.90
2023-04-19T09:53:35.329Z,12.40
2023-04-19T09:56:03.808Z,12.20
2023-04-19T09:58:42.580Z,12.10
2023-04-19T10:01:19.306Z,12.10
2023-04-19T10:03:49.263Z,11.90
2023-04-19T10:08:53.546Z,12.10
2023-04-19T10:11:26.861Z,12.50
2023-04-19T10:13:59.197Z,12.70
2023-04-19T10:16:27.332Z,12.60
2023-04-19T10:18:55.373Z,12.90
2023-04-19T10:21:22.536Z,12.70
2023-04-19T10:23:50.173Z,12.60
2023-04-19T10:26:17.190Z,12.80
2023-04-19T10:28:44.149Z,13.10
2023-04-19T10:31:14.830Z,13.20
2023-04-19T10:33:42.633Z,13.20
2023-04-19T10:36:11.358Z,12.90
2023-04-19T10:38:55.564Z,12.70
2023-04-19T10:41:23.063Z,12.90
2023-04-19T10:44:16.494Z,13.00
2023-04-19T10:46:43.390Z,13.10
2023-04-19T10:49:12.866Z,13.20
2023-04-19T10:51:43.444Z,13.40
2023-04-19T10:54:31.954Z,13.40
2023-04-19T10:57:11.893Z,13.30
2023-04-19T10:59:40.721Z,13.60
2023-04-19T11:02:32.732Z,13.80
2023-04-19T11:05:01.087Z,13.50
2023-04-19T11:07:28.425Z,13.50
2023-04-19T11:09:55.355Z,13.20
2023-04-19T11:12:22.477Z,13.30
2023-04-19T11:14:54.768Z,13.60
2023-04-19T11:17:32.026Z,13.70
2023-04-19T11:20:08.692Z,13.80
2023-04-19T11:22:43.398Z,13.60
2023-04-19T11:25:19.410Z,13.40
2023-04-19T11:27:53.757Z,13.70
2023-04-19T11:30:23.251Z,13.90
2023-04-19T11:32:55.587Z,13.60
2023-04-19T11:35:30.804Z,13.50
2023-04-19T11:37:59.580Z,13.50
2023-04-19T11:40:27.021Z,13.80
2023-04-19T11:43:01.996Z,14.00
2023-04-19T11:45:40.050Z,14.00
2023-04-19T11:48:15.685Z,13.90
2023-04-19T11:50:44.552Z,13.90
2023-04-19T11:53:24.403Z,13.90
2023-04-19T11:56:07.500Z,14.00
2023-04-19T11:58:40.085Z,13.70
2023-04-19T12:01:28.398Z,13.50
2023-04-19T12:03:58.891Z,13.30
2023-04-19T12:06:27.020Z,13.40
2023-04-19T12:08:55.462Z,13.70
2023-04-19T12:11:42.325Z,13.80
2023-04-19T12:14:15.054Z,13.60
2023-04-19T12:16:42.316Z,13.90
2023-04-19T12:19:20.765Z,13.80
2023-04-19T12:21:48.090Z,13.90
2023-04-19T12:24:16.856Z,13.80
2023-04-19T12:26:56.339Z,13.70
2023-04-19T12:29:24.549Z,13.80
2023-04-19T12:31:51.811Z,13.80
2023-04-19T12:34:19.446Z,13.70
2023-04-19T12:36:46.618Z,13.70
2023-04-19T12:39:13.672Z,13.70
2023-04-19T12:41:40.907Z,13.50
2023-04-19T12:44:07.827Z,13.60
2023-04-19T12:46:34.925Z,13.60
2023-04-19T12:49:02.006Z,13.50
2023-04-19T12:51:28.906Z,13.60
2023-04-19T12:53:55.847Z,13.60
2023-04-19T12:56:22.839Z,13.70
2023-04-19T12:58:50.506Z,13.90
2023-04-19T13:01:17.544Z,13.60
2023-04-19T13:03:44.670Z,13.60
2023-04-19T13:06:14.931Z,13.40
2023-04-19T13:08:46.652Z,13.40
2023-04-19T13:11:15.928Z,13.50
2023-04-19T13:13:42.879Z,13.60
2023-04-19T13:16:09.929Z,13.80
2023-04-19T13:18:36.861Z,13.90
2023-04-19T13:21:06.031Z,13.80
2023-04-19T13:23:34.373Z,13.70
2023-04-19T13:26:01.279Z,13.60
2023-04-19T13:28:28.221Z,13.40
2023-04-19T13:30:56.378Z,13.60
2023-04-19T13:33:23.686Z,13.50
2023-04-19T13:35:50.546Z,13.60
2023-04-19T13:38:17.510Z,13.80
2023-04-19T13:40:45.644Z,13.70
2023-04-19T13:43:12.573Z,13.80
2023-04-19T13:45:39.486Z,13.90
2023-04-19T13:48:06.783Z,13.70
2023-04-19T13:50:33.734Z,13.60
2023-04-19T13:53:00.800Z,13.50
2023-04-19T13:55:27.765Z,13.70
2023-04-19T13:57:54.744Z,13.70
2023-04-19T14:00:21.906Z,13.70
2023-04-19T14:02:50.909Z,13.80
2023-04-19T14:05:19.309Z,13.60
2023-04-19T14:07:46.554Z,13.80
2023-04-19T14:10:13.520Z,14.00
2023-04-19T14:12:40.933Z,13.90
2023-04-19T14:15:10.989Z,13.70
2023-04-19T14:17:38.255Z,13.70
2023-04-19T14:20:07.487Z,13.60
2023-04-19T14:22:35.583Z,13.70
2023-04-19T14:25:04.273Z,13.90
2023-04-19T14:27:31.563Z,14.00
2023-04-19T14:29:58.754Z,14.00
2023-04-19T14:32:27.527Z,13.80
2023-04-19T14:34:56.237Z,13.80
2023-04-19T14:37:24.690Z,13.80
2023-04-19T14:39:52.098Z,13.80
2023-04-19T14:42:22.295Z,13.80
2023-04-19T14:44:52.095Z,13.70
2023-04-19T14:47:20.016Z,13.70
2023-04-19T14:49:47.130Z,13.90
2023-04-19T14:52:14.271Z,14.00
2023-04-19T14:54:41.910Z,14.00
2023-04-19T14:57:09.575Z,14.10
2023-04-19T14:59:36.732Z,14.10
2023-04-19T15:02:03.873Z,14.00
2023-04-19T15:04:33.909Z,13.90
2023-04-19T15:07:01.113Z,13.90
2023-04-19T15:09:27.987Z,13.80
2023-04-19T15:11:54.881Z,13.90
2023-04-19T15:14:21.753Z,14.00
2023-04-19T15:16:49.114Z,14.00
2023-04-19T15:19:16.429Z,14.00
2023-04-19T15:21:43.741Z,13.90
2023-04-19T15:24:11.269Z,13.90
2023-04-19T15:26:39.195Z,13.60
2023-04-19T15:29:06.586Z,13.40
2023-04-19T15:31:33.792Z,13.50
2023-04-19T15:34:04.460Z,13.60
2023-04-19T15:36:32.027Z,13.70
2023-04-19T15:38:59.534Z,13.80
2023-04-19T15:41:26.859Z,13.90
2023-04-19T15:43:53.799Z,13.70
2023-04-19T15:46:20.788Z,13.50
2023-04-19T15:48:48.685Z,13.50
2023-04-19T15:51:16.239Z,13.50
2023-04-19T15:53:43.299Z,13.50
2023-04-19T15:56:10.680Z,13.40
2023-04-19T15:58:37.882Z,13.40
2023-04-19T16:01:08.695Z,13.50
2023-04-19T16:03:35.872Z,13.60
2023-04-19T16:06:02.938Z,13.70
2023-04-19T16:08:29.835Z,13.80
2023-04-19T16:10:56.811Z,14.00
2023-04-19T16:13:23.952Z,13.90
2023-04-19T16:15:50.897Z,13.70
2023-04-19T16:18:17.761Z,13.50
2023-04-19T16:20:44.787Z,13.50
2023-04-19T16:23:12.122Z,13.30
2023-04-19T16:25:41.403Z,13.30
2023-04-19T16:28:08.656Z,13.30
2023-04-19T16:30:36.422Z,13.10
2023-04-19T16:33:03.991Z,13.10
2023-04-19T16:35:31.114Z,13.10
2023-04-19T16:37:58.270Z,13.00
2023-04-19T16:40:25.209Z,12.90
2023-04-19T16:42:52.159Z,12.90
2023-04-19T16:45:19.319Z,12.90
2023-04-19T16:47:46.623Z,12.90
2023-04-19T16:50:14.340Z,13.00
2023-04-19T16:52:41.778Z,13.00
2023-04-19T16:55:09.380Z,12.90
2023-04-19T16:57:36.921Z,12.90
2023-04-19T17:00:06.076Z,12.80
2023-04-19T17:02:33.921Z,12.80
2023-04-19T17:05:01.408Z,12.60
2023-04-19T17:07:28.535Z,12.50
2023-04-19T17:09:56.018Z,12.40
2023-04-19T17:12:23.036Z,12.30
2023-04-19T17:14:50.034Z,12.30
2023-04-19T17:17:20.041Z,12.20
2023-04-19T17:19:47.217Z,12.10
2023-04-19T17:22:15.340Z,12.00
2023-04-19T17:24:42.973Z,12.00
2023-04-19T17:27:10.086Z,11.90
2023-04-19T17:29:37.079Z,11.90
2023-04-19T17:32:04.375Z,11.90
2023-04-19T17:34:36.671Z,11.80
2023-04-19T17:37:04.251Z,11.90
2023-04-19T17:39:33.012Z,11.80
2023-04-19T17:42:00.144Z,11.80
2023-04-19T17:44:27.318Z,11.80
2023-04-19T17:46:54.334Z,11.80
2023-04-19T17:49:21.843Z,11.80
2023-04-19T17:51:48.907Z,11.70
2023-04-19T17:54:16.395Z,11.60
2023-04-19T17:56:43.368Z,11.60
2023-04-19T17:59:10.404Z,11.60
2023-04-19T18:01:38.311Z,11.50
2023-04-19T18:04:05.752Z,11.50
2023-04-19T18:06:33.054Z,11.40
2023-04-19T18:09:00.593Z,11.30
2023-04-19T18:11:28.657Z,11.30
2023-04-19T18:13:58.127Z,11.20
2023-04-19T18:16:25.337Z,11.10
2023-04-19T18:18:52.390Z,11.00
2023-04-19T18:21:19.469Z,10.90
2023-04-19T18:23:46.490Z,10.90
2023-04-19T18:26:13.565Z,10.90
2023-04-19T18:28:42.658Z,10.80
2023-04-19T18:31:10.126Z,10.70
2023-04-19T18:33:37.670Z,10.70
2023-04-19T18:36:05.718Z,10.70
2023-04-19T18:38:34.216Z,10.70
2023-04-19T18:41:01.301Z,10.60
2023-04-19T18:43:30.967Z,10.60
2023-04-19T18:45:59.587Z,10.50
2023-04-19T18:48:28.429Z,10.40
2023-04-19T18:50:59.454Z,10.40
2023-04-19T18:53:31.715Z,10.40
2023-04-19T18:55:58.859Z,10.30
2023-04-19T18:58:32.409Z,10.30
2023-04-19T19:00:59.597Z,10.20
2023-04-19T19:03:56.788Z,10.10
2023-04-19T19:06:16.972Z,10.10
2023-04-19T19:08:46.421Z,10.10
2023-04-19T19:11:37.424Z,10.00
2023-04-19T19:14:00.633Z,10.00
2023-04-19T19:16:27.692Z,9.90
2023-04-19T19:18:55.920Z,9.90
2023-04-19T19:21:23.056Z,9.80
2023-04-19T19:23:52.411Z,9.80
2023-04-19T19:26:19.633Z,9.70
2023-04-19T19:28:47.367Z,9.60
2023-04-19T19:31:14.661Z,9.60
2023-04-19T19:33:50.176Z,9.60
2023-04-19T19:36:20.537Z,9.60
2023-04-19T19:38:47.475Z,9.60
2023-04-19T19:43:47.985Z,9.50
2023-04-19T19:46:15.322Z,9.50
2023-04-19T19:48:42.757Z,9.40
2023-04-19T19:53:41.348Z,9.40
2023-04-19T19:56:18.373Z,9.30
2023-04-19T19:58:51.682Z,9.30
2023-04-19T20:01:22.711Z,9.30
2023-04-19T20:03:52.043Z,9.30
2023-04-19T20:08:51.396Z,9.30
2023-04-19T20:11:18.430Z,9.20
2023-04-19T20:13:45.831Z,9.20
2023-04-19T20:16:15.073Z,9.20
2023-04-19T20:18:42.778Z,9.20
2023-04-19T20:21:09.793Z,9.10
2023-04-19T20:23:39.841Z,9.10
2023-04-19T20:26:06.953Z,9.10
2023-04-19T20:28:35.309Z,9.00
2023-04-19T20:31:02.610Z,9.00
2023-04-19T20:33:29.598Z,9.00
2023-04-19T20:35:59.755Z,9.00
2023-04-19T20:38:27.245Z,9.00
2023-04-19T20:40:58.360Z,8.90
2023-04-19T20:43:25.485Z,9.00
2023-04-19T20:45:53.646Z,9.00
2023-04-19T20:48:20.652Z,8.90
2023-04-19T20:50:47.673Z,8.80
2023-04-19T20:53:14.693Z,8.80
2023-04-19T20:55:43.771Z,8.80
2023-04-19T20:58:12.064Z,8.70
2023-04-19T21:00:40.213Z,8.70
2023-04-19T21:03:07.984Z,8.70
2023-04-19T21:05:35.629Z,8.70
2023-04-19T21:08:03.625Z,8.70
2023-04-19T21:10:30.560Z,8.70
2023-04-19T21:12:57.565Z,8.70
2023-04-19T21:15:24.595Z,8.80
2023-04-19T21:17:51.687Z,8.80
2023-04-19T21:20:18.730Z,8.90
2023-04-19T21:22:47.320Z,8.90
2023-04-19T21:25:14.433Z,8.90
2023-04-19T21:27:42.333Z,8.90
2023-04-19T21:30:12.323Z,8.80
2023-04-19T21:32:39.594Z,8.90
2023-04-19T21:35:07.835Z,8.80
2023-04-19T21:37:36.612Z,8.80
2023-04-19T21:40:03.768Z,8.80
2023-04-19T21:42:31.172Z,8.80
2023-04-19T21:44:58.200Z,8.80
2023-04-19T21:47:25.125Z,8.80
2023-04-19T21:49:53.434Z,8.80
2023-04-19T21:52:20.378Z,8.70
2023-04-19T21:54:48.761Z,8.70
2023-04-19T21:57:17.623Z,8.60
2023-04-19T21:59:44.536Z,8.50
2023-04-19T22:02:11.595Z,8.50
2023-04-19T22:04:41.634Z,8.50
2023-04-19T22:07:11.552Z,8.50
2023-04-19T22:09:39.269Z,8.50
2023-04-19T22:12:06.677Z,8.50
2023-04-19T22:14:33.789Z,8.50
2023-04-19T22:17:02.659Z,8.40
2023-04-19T22:19:29.936Z,8.40
2023-04-19T22:21:56.965Z,8.40
2023-04-19T22:24:24.124Z,8.40
2023-04-19T22:26:51.256Z,8.30
2023-04-19T22:29:18.653Z,8.30
2023-04-19T22:31:46.173Z,8.30
2023-04-19T22:34:15.737Z,8.20
2023-04-19T22:36:42.681Z,8.20
2023-04-19T22:39:09.545Z,8.20
2023-04-19T22:41:36.513Z,8.20
2023-04-19T22:44:03.479Z,8.10
2023-04-19T22:46:30.734Z,8.10
2023-04-19T22:48:58.056Z,8.10
2023-04-19T22:51:25.300Z,8.10
2023-04-19T22:53:52.212Z,8.10
2023-04-19T22:56:19.221Z,8.10
2023-04-19T22:58:46.164Z,8.10
2023-04-19T23:01:13.252Z,8.10
2023-04-19T23:03:40.435Z,8.10
2023-04-19T23:06:10.729Z,8.10
2023-04-19T23:08:37.648Z,8.10
2023-04-19T23:11:04.751Z,8.20
2023-04-19T23:13:31.818Z,8.20
2023-04-19T23:16:01.265Z,8.20
2023-04-19T23:18:30.081Z,8.20
2023-04-19T23:20:57.516Z,8.20
2023-04-19T23:23:24.393Z,8.20
2023-04-19T23:25:51.612Z,8.20
2023-04-19T23:28:18.602Z,8.20
2023-04-19T23:30:56.592Z,8.10
2023-04-19T23:33:28.446Z,8.10
2023-04-19T23:35:55.450Z,8.10
2023-04-19T23:38:23.585Z,8.10
2023-04-19T23:40:50.830Z,8.10
2023-04-19T23:43:17.862Z,8.10
2023-04-19T23:45:44.877Z,8.00
2023-04-19T23:48:11.878Z,8.00
2023-04-19T23:50:39.308Z,7.90
2023-04-19T23:53:06.212Z,7.80
2023-04-19T23:55:33.313Z,7.70
2023-04-19T23:58:03.500Z,7.60
